Blauvelt, New York
Current Conditions -  °F | °C
As of 12:15 PM on Thursday 27 Nov 2014 (Local Time) from KHPN Reporting Station
Light Snow Light Snow  
Wind Chill: 26°   Ceiling: 4500
Heat Index: 34°   Visibility: 1.7mi
Dew Point: 28°   Wind: 10mph
Humidity: 81%   Direction: 330°NNW
Pressure: 29.96"   Gusts: NA
Location:  41.06°N, 73.96°W
Report Text: KHPN 271715Z 33009KT 1 3/4SM -SN SCT015 OVC045 01/M02 A2996 RMK AO2 P0000
Loading
Personal Weather Stations






























Interactive Weather Map New forecast layout! Learn more

10-Day Weather Forecast

Advertisements
Track Severe Weather on mobile